Time;durP1;ratioP1;P1;durP2;ratioP2;P2;SDS_P1;SDS_P2;PMS_P1;PMS_P2;Temp;Humidity;BMP_temperature;BMP_pressure;BME280_temperature;BME280_humidity;BME280_pressure;Samples;Min_cycle;Max_cycle;Signal;HPM_P1;HPM_P2
2021/10/10 00:00:52;;;;;;;17.58;13.77;;;10.20;95.50;;;;;;4789509;29;20043;-81
2021/10/10 00:03:18;;;;;;;18.90;14.52;;;10.10;95.30;;;;;;4788732;29;20077;-81
2021/10/10 00:05:44;;;;;;;21.20;14.15;;;10.10;95.20;;;;;;4789165;29;20051;-82
2021/10/10 00:08:09;;;;;;;18.50;13.45;;;10.00;95.20;;;;;;4789744;29;20374;-82
2021/10/10 00:10:35;;;;;;;21.98;14.73;;;10.00;95.30;;;;;;4788064;29;20046;-82
2021/10/10 00:13:01;;;;;;;18.67;13.73;;;9.90;95.30;;;;;;4805508;29;20385;-82
2021/10/10 00:15:27;;;;;;;18.92;13.95;;;9.90;95.40;;;;;;4805485;29;20511;-82
2021/10/10 00:17:52;;;;;;;18.45;14.65;;;9.90;95.40;;;;;;4789005;29;20453;-82
2021/10/10 00:20:18;;;;;;;17.67;13.32;;;9.80;95.40;;;;;;4789449;29;20076;-82
2021/10/10 00:22:44;;;;;;;19.77;13.55;;;9.80;95.40;;;;;;4788790;29;20831;-81
2021/10/10 00:25:10;;;;;;;19.75;13.90;;;9.80;95.40;;;;;;4789569;29;20082;-82
2021/10/10 00:27:36;;;;;;;19.45;13.40;;;9.70;95.30;;;;;;4792423;29;20047;-82
2021/10/10 00:30:04;;;;;;;18.08;13.60;;;9.70;95.30;;;;;;4791915;29;20518;-81
2021/10/10 00:32:29;;;;;;;19.75;13.52;;;9.60;95.30;;;;;;4791667;29;20136;-81
2021/10/10 00:34:55;;;;;;;20.48;14.38;;;9.60;95.30;;;;;;4792202;29;20085;-81
2021/10/10 00:37:21;;;;;;;20.52;13.90;;;9.60;95.30;;;;;;4792821;29;20075;-81
2021/10/10 00:39:46;;;;;;;18.08;13.95;;;9.50;95.20;;;;;;4790950;29;20043;-81
2021/10/10 00:42:12;;;;;;;17.23;13.45;;;9.50;95.30;;;;;;4792198;29;20057;-81
2021/10/10 00:44:38;;;;;;;20.02;13.68;;;9.50;95.30;;;;;;4792418;29;20130;-81
2021/10/10 00:47:04;;;;;;;20.42;14.00;;;9.40;95.30;;;;;;4791091;29;20058;-81
2021/10/10 00:49:30;;;;;;;21.50;13.10;;;9.40;95.40;;;;;;4791982;29;20116;-81
2021/10/10 00:51:58;;;;;;;19.15;14.13;;;9.40;95.40;;;;;;4791863;29;20408;-82
2021/10/10 00:54:24;;;;;;;19.48;13.80;;;9.30;95.50;;;;;;4791295;29;20047;-81
2021/10/10 00:56:53;;;;;;;20.98;14.77;;;9.30;95.50;;;;;;4791899;29;20144;-82
2021/10/10 00:59:22;;;;;;;18.38;13.57;;;9.30;95.60;;;;;;4807793;29;20042;-82
2021/10/10 01:01:49;;;;;;;18.27;13.68;;;9.20;95.70;;;;;;4791363;29;20047;-81
2021/10/10 01:04:15;;;;;;;18.77;13.40;;;9.20;95.50;;;;;;4792178;29;20039;-81
2021/10/10 01:06:41;;;;;;;19.38;13.38;;;9.20;95.50;;;;;;4790882;29;20062;-82
2021/10/10 01:09:06;;;;;;;20.98;14.32;;;9.20;95.60;;;;;;4807769;29;20042;-81
2021/10/10 01:11:32;;;;;;;21.17;14.25;;;9.10;95.60;;;;;;4791399;29;21546;-81
2021/10/10 01:13:58;;;;;;;19.92;14.05;;;9.10;95.70;;;;;;4790655;29;20507;-81
2021/10/10 01:16:24;;;;;;;19.20;14.10;;;9.10;95.70;;;;;;4791466;29;20416;-81
2021/10/10 01:18:49;;;;;;;19.15;14.07;;;9.10;95.80;;;;;;4791512;29;20043;-82
2021/10/10 01:21:17;;;;;;;21.30;13.85;;;9.00;95.80;;;;;;4790535;29;20051;-81
2021/10/10 01:23:43;;;;;;;19.13;14.05;;;9.00;95.80;;;;;;4777289;29;20053;-81
2021/10/10 01:26:08;;;;;;;18.15;13.45;;;9.00;95.80;;;;;;4791371;29;20047;-81
2021/10/10 01:28:34;;;;;;;18.00;13.65;;;9.00;95.80;;;;;;4790852;29;20047;-81
2021/10/10 01:31:00;;;;;;;21.13;14.05;;;9.00;95.90;;;;;;4791307;29;20133;-81
2021/10/10 01:33:25;;;;;;;19.20;13.20;;;8.90;95.80;;;;;;4791069;29;20061;-81
2021/10/10 01:35:51;;;;;;;21.15;13.57;;;8.90;96.10;;;;;;4790269;29;20055;-81
2021/10/10 01:38:18;;;;;;;19.30;14.35;;;8.90;95.50;;;;;;4791113;29;20043;-81
2021/10/10 01:40:44;;;;;;;22.38;14.70;;;8.90;95.50;;;;;;4790993;29;20058;-81
2021/10/10 01:43:10;;;;;;;22.58;14.45;;;8.80;95.60;;;;;;4790395;29;20102;-81
2021/10/10 01:45:36;;;;;;;23.38;13.52;;;8.80;95.60;;;;;;4784321;29;20150;-82
2021/10/10 01:48:01;;;;;;;20.02;14.00;;;8.80;95.70;;;;;;4791051;29;20063;-81
2021/10/10 01:50:27;;;;;;;23.48;14.23;;;8.70;95.60;;;;;;4790435;29;20057;-81
2021/10/10 01:52:52;;;;;;;19.92;13.52;;;8.70;95.60;;;;;;4791286;29;20039;-81
2021/10/10 01:55:19;;;;;;;22.20;15.10;;;8.70;95.60;;;;;;4791280;29;20454;-82
2021/10/10 01:57:45;;;;;;;19.92;13.60;;;8.70;95.70;;;;;;4790841;29;20066;-81
2021/10/10 02:00:12;;;;;;;20.02;14.35;;;8.60;95.60;;;;;;4790368;29;20043;-82
2021/10/10 02:02:38;;;;;;;20.92;14.02;;;8.60;95.70;;;;;;4787926;29;20087;-82
2021/10/10 02:05:05;;;;;;;20.80;13.45;;;8.60;95.80;;;;;;4785314;29;20043;-82
2021/10/10 02:07:31;;;;;;;17.90;13.60;;;8.60;95.70;;;;;;4790633;29;20055;-82
2021/10/10 02:09:56;;;;;;;19.45;12.98;;;8.50;95.70;;;;;;4790483;29;20066;-82
2021/10/10 02:12:22;;;;;;;21.77;13.85;;;8.50;95.60;;;;;;4791152;29;20051;-82
2021/10/10 02:14:47;;;;;;;21.15;13.57;;;8.50;95.60;;;;;;4786989;29;20061;-82
2021/10/10 02:17:13;;;;;;;20.17;12.90;;;8.50;95.70;;;;;;4790275;29;20796;-82
2021/10/10 02:19:38;;;;;;;17.77;13.40;;;8.40;95.60;;;;;;4790399;29;20135;-82
2021/10/10 02:22:04;;;;;;;19.08;12.75;;;8.40;95.60;;;;;;4790340;29;20377;-82
2021/10/10 02:24:30;;;;;;;16.92;12.40;;;8.40;95.60;;;;;;4789651;29;20062;-82
2021/10/10 02:26:55;;;;;;;19.60;13.40;;;8.30;95.50;;;;;;4806375;29;20452;-81
2021/10/10 02:29:21;;;;;;;19.75;13.20;;;8.30;95.60;;;;;;4790384;29;20139;-81
2021/10/10 02:31:46;;;;;;;17.63;12.30;;;8.30;95.60;;;;;;4805129;29;20050;-81
2021/10/10 02:34:13;;;;;;;18.90;12.13;;;8.20;95.50;;;;;;4790051;29;20051;-82
2021/10/10 02:36:41;;;;;;;17.70;12.82;;;8.20;95.50;;;;;;4790381;29;20055;-82
2021/10/10 02:39:07;;;;;;;19.17;13.57;;;8.20;95.30;;;;;;4790185;29;20046;-81
2021/10/10 02:41:33;;;;;;;20.45;12.55;;;8.10;95.50;;;;;;4789618;29;20050;-82
2021/10/10 02:43:58;;;;;;;21.15;13.45;;;8.10;95.40;;;;;;4790030;29;20138;-81
2021/10/10 02:46:24;;;;;;;18.15;12.43;;;8.10;95.60;;;;;;4789109;29;20059;-81
2021/10/10 02:48:49;;;;;;;18.98;12.95;;;8.10;95.60;;;;;;4789528;29;20059;-82
2021/10/10 02:51:15;;;;;;;18.35;12.73;;;8.10;95.70;;;;;;4790227;29;20130;-82
2021/10/10 02:53:40;;;;;;;18.45;12.88;;;8.10;95.80;;;;;;4788874;29;20047;-82
2021/10/10 02:56:06;;;;;;;18.98;13.57;;;8.00;95.90;;;;;;4789882;29;20051;-82
2021/10/10 02:58:32;;;;;;;20.23;13.27;;;8.00;95.90;;;;;;4790157;29;20400;-81
2021/10/10 03:01:00;;;;;;;17.00;12.43;;;8.00;96.00;;;;;;4789531;29;20419;-81
2021/10/10 03:03:26;;;;;;;18.05;12.77;;;8.00;96.10;;;;;;4790132;29;20553;-81
2021/10/10 03:05:51;;;;;;;18.95;12.45;;;8.00;96.00;;;;;;4788753;29;20047;-81
2021/10/10 03:08:17;;;;;;;18.08;12.77;;;7.90;95.90;;;;;;4790353;29;20051;-82
2021/10/10 03:10:43;;;;;;;17.42;13.00;;;7.90;96.00;;;;;;4789615;29;20042;-82
2021/10/10 03:13:09;;;;;;;20.15;12.98;;;7.90;96.00;;;;;;4788998;29;20051;-81
2021/10/10 03:15:35;;;;;;;16.80;12.57;;;7.90;96.00;;;;;;4789605;29;20047;-82
2021/10/10 03:18:02;;;;;;;18.27;12.95;;;7.90;95.90;;;;;;4790205;29;20098;-82
2021/10/10 03:20:27;;;;;;;16.10;12.05;;;7.90;96.00;;;;;;4788646;29;20049;-82
2021/10/10 03:22:53;;;;;;;16.05;11.80;;;7.80;96.20;;;;;;4790272;29;20050;-81
2021/10/10 03:25:19;;;;;;;17.73;12.35;;;7.80;95.90;;;;;;4790060;29;20496;-81
2021/10/10 03:27:44;;;;;;;18.95;12.65;;;7.80;95.90;;;;;;4788632;29;20050;-81
2021/10/10 03:30:10;;;;;;;17.13;12.63;;;7.80;96.00;;;;;;4789690;29;20038;-82
2021/10/10 03:32:36;;;;;;;18.70;12.25;;;7.70;96.00;;;;;;4789768;29;20442;-81
2021/10/10 03:35:02;;;;;;;19.55;12.88;;;7.70;96.00;;;;;;4787763;29;20246;-82
2021/10/10 03:37:27;;;;;;;16.65;11.85;;;7.70;96.00;;;;;;4786306;29;20039;-81
2021/10/10 03:39:53;;;;;;;15.77;12.02;;;7.70;96.00;;;;;;4790052;29;20046;-82
2021/10/10 03:42:18;;;;;;;16.42;11.48;;;7.60;95.90;;;;;;4788940;29;20055;-81
2021/10/10 03:44:46;;;;;;;16.00;11.60;;;7.60;96.00;;;;;;4789827;29;20137;-81
2021/10/10 03:47:13;;;;;;;16.42;11.52;;;7.60;96.10;;;;;;4788973;29;20050;-82
2021/10/10 03:49:39;;;;;;;15.40;11.38;;;7.60;96.10;;;;;;4788691;29;20126;-81
2021/10/10 03:52:05;;;;;;;16.10;11.50;;;7.60;96.10;;;;;;4789381;29;20126;-83
2021/10/10 03:57:19;;;;;;;;;;;7.50;96.00;;;;;;4788835;29;20083;-82
2021/10/10 03:59:48;;;;;;;14.50;9.90;;;7.40;94.80;;;;;;4790225;29;20020;-82
2021/10/10 04:02:13;;;;;;;15.52;10.02;;;7.40;95.90;;;;;;4792278;29;20044;-82
2021/10/10 04:04:39;;;;;;;15.55;10.70;;;7.40;95.80;;;;;;4792522;29;20120;-82
2021/10/10 04:07:04;;;;;;;15.05;10.00;;;7.40;95.90;;;;;;4792570;29;20099;-82
2021/10/10 04:09:30;;;;;;;13.90;10.45;;;7.30;95.80;;;;;;4792117;29;20101;-82
2021/10/10 04:11:56;;;;;;;14.90;10.38;;;7.30;95.90;;;;;;4793604;29;20055;-82
2021/10/10 04:14:21;;;;;;;13.40;9.75;;;7.30;95.90;;;;;;4792850;29;20054;-82
2021/10/10 04:16:47;;;;;;;13.80;9.10;;;7.30;95.90;;;;;;4792248;29;20112;-82
2021/10/10 04:19:12;;;;;;;13.80;9.68;;;7.30;95.90;;;;;;4793224;29;20137;-82
2021/10/10 04:21:38;;;;;;;12.63;9.55;;;7.20;95.80;;;;;;4792579;29;20051;-82
2021/10/10 04:24:03;;;;;;;12.40;9.57;;;7.20;95.90;;;;;;4791509;29;20062;-82
2021/10/10 04:26:29;;;;;;;12.63;9.63;;;7.20;96.00;;;;;;4791969;29;20052;-82
2021/10/10 04:28:54;;;;;;;14.25;9.32;;;7.20;96.00;;;;;;4792963;29;20051;-82
2021/10/10 04:31:20;;;;;;;14.10;8.98;;;7.20;96.00;;;;;;4791633;29;20058;-82
2021/10/10 04:33:45;;;;;;;13.18;8.98;;;7.20;96.00;;;;;;4792895;29;20404;-83
2021/10/10 04:36:11;;;;;;;13.82;9.98;;;7.10;96.00;;;;;;4791769;29;20063;-82
2021/10/10 04:38:36;;;;;;;14.32;9.18;;;7.10;96.20;;;;;;4792003;29;20047;-82
2021/10/10 04:41:02;;;;;;;12.82;9.25;;;7.10;96.20;;;;;;4792149;29;20492;-82
2021/10/10 04:43:28;;;;;;;13.95;9.70;;;7.10;96.20;;;;;;4792339;29;20159;-82
2021/10/10 04:45:53;;;;;;;13.15;9.23;;;7.10;96.20;;;;;;4791518;29;20055;-82
2021/10/10 04:48:19;;;;;;;12.57;9.10;;;7.10;96.20;;;;;;4792142;29;20062;-82
2021/10/10 04:50:44;;;;;;;15.60;9.15;;;7.10;96.20;;;;;;4792043;29;20050;-82
2021/10/10 04:53:10;;;;;;;12.93;9.05;;;7.00;96.20;;;;;;4791607;29;20047;-83
2021/10/10 04:55:35;;;;;;;12.38;9.05;;;7.00;96.20;;;;;;4807700;29;20047;-82
2021/10/10 04:58:01;;;;;;;12.60;9.00;;;7.00;96.20;;;;;;4808732;29;20054;-82
2021/10/10 05:00:27;;;;;;;11.43;8.90;;;7.00;96.10;;;;;;4790746;29;20386;-82
2021/10/10 05:02:53;;;;;;;14.07;9.20;;;6.90;96.10;;;;;;4792291;29;20082;-82
2021/10/10 05:05:19;;;;;;;12.10;8.77;;;7.00;96.20;;;;;;4791316;29;20074;-82
2021/10/10 05:07:44;;;;;;;12.20;8.85;;;6.90;96.20;;;;;;4792038;29;20093;-83
2021/10/10 05:10:10;;;;;;;12.07;8.45;;;6.90;96.20;;;;;;4791775;29;20046;-82
2021/10/10 05:12:36;;;;;;;13.07;8.77;;;6.90;96.20;;;;;;4790893;29;20100;-82
2021/10/10 05:15:03;;;;;;;12.38;8.75;;;6.80;96.20;;;;;;4791944;29;20411;-83
2021/10/10 05:17:29;;;;;;;11.82;8.93;;;6.80;96.20;;;;;;4791993;29;20053;-82
2021/10/10 05:19:54;;;;;;;13.02;8.90;;;6.80;96.20;;;;;;4791344;29;20047;-82
2021/10/10 05:22:20;;;;;;;12.70;9.10;;;6.80;96.10;;;;;;4791593;29;20058;-82
2021/10/10 05:24:45;;;;;;;13.45;9.00;;;6.70;96.10;;;;;;4791314;29;20042;-82
2021/10/10 05:27:11;;;;;;;13.05;9.13;;;6.70;96.10;;;;;;4790814;29;20078;-82
2021/10/10 05:29:36;;;;;;;15.15;9.05;;;6.70;96.10;;;;;;4791506;29;20047;-82
2021/10/10 05:32:02;;;;;;;15.05;8.93;;;6.70;96.20;;;;;;4791640;29;20055;-82
2021/10/10 05:34:28;;;;;;;14.52;9.02;;;6.70;96.20;;;;;;4790848;29;20047;-82
2021/10/10 05:36:54;;;;;;;14.50;9.10;;;6.60;96.10;;;;;;4807507;29;20122;-83
2021/10/10 05:39:21;;;;;;;12.60;9.27;;;6.60;96.20;;;;;;4791718;29;20098;-82
2021/10/10 05:41:46;;;;;;;14.27;9.93;;;6.60;96.20;;;;;;4790689;29;20054;-82
2021/10/10 05:44:12;;;;;;;12.77;8.95;;;6.60;96.30;;;;;;4774022;30;20051;-82
2021/10/10 05:46:37;;;;;;;12.75;9.27;;;6.60;96.30;;;;;;4781426;29;20455;-83
2021/10/10 05:49:03;;;;;;;13.85;8.90;;;6.60;96.30;;;;;;4790850;29;20090;-82
2021/10/10 05:51:28;;;;;;;12.05;8.98;;;6.60;96.30;;;;;;4790334;29;20050;-82
2021/10/10 05:53:54;;;;;;;13.52;9.45;;;6.50;96.20;;;;;;4790735;29;20138;-83
2021/10/10 05:56:20;;;;;;;12.07;9.20;;;6.50;96.10;;;;;;4790522;29;20104;-82
2021/10/10 05:58:50;;;;;;;12.73;9.00;;;6.50;96.10;;;;;;4790418;29;20038;-82
2021/10/10 06:01:16;;;;;;;14.10;9.23;;;6.40;96.20;;;;;;4790730;29;20057;-82
2021/10/10 06:03:41;;;;;;;12.63;9.15;;;6.40;96.20;;;;;;4790162;29;20137;-82
2021/10/10 06:06:07;;;;;;;14.32;9.07;;;6.40;96.20;;;;;;4790264;29;20050;-83
2021/10/10 06:08:32;;;;;;;13.13;9.50;;;6.40;96.20;;;;;;4797853;29;20035;-82
2021/10/10 06:10:58;;;;;;;11.80;8.77;;;6.40;96.30;;;;;;4783744;29;20058;-82
2021/10/10 06:13:23;;;;;;;12.57;8.80;;;6.40;96.40;;;;;;4790176;29;20049;-82
2021/10/10 06:15:50;;;;;;;13.43;9.35;;;6.40;96.30;;;;;;4789855;29;20042;-82
2021/10/10 06:18:16;;;;;;;13.60;9.07;;;6.40;96.30;;;;;;4790605;29;20054;-82
2021/10/10 06:20:41;;;;;;;12.77;9.30;;;6.40;96.40;;;;;;4790292;29;20050;-82
2021/10/10 06:23:07;;;;;;;12.75;9.38;;;6.40;96.40;;;;;;4789283;29;20082;-82
2021/10/10 06:25:32;;;;;;;13.77;9.38;;;6.40;96.50;;;;;;4789403;29;20047;-81
2021/10/10 06:27:58;;;;;;;15.18;9.55;;;6.40;96.50;;;;;;4790559;29;20062;-82
2021/10/10 06:30:24;;;;;;;13.50;9.35;;;6.40;96.50;;;;;;4789927;29;20047;-82
2021/10/10 06:32:49;;;;;;;15.10;9.25;;;6.40;96.50;;;;;;4790038;29;20098;-82
2021/10/10 06:35:15;;;;;;;12.65;9.18;;;6.30;96.50;;;;;;4790389;29;20085;-82
2021/10/10 06:37:40;;;;;;;14.20;9.45;;;6.30;96.40;;;;;;4788876;29;20043;-81
2021/10/10 06:40:06;;;;;;;14.82;9.55;;;6.30;96.40;;;;;;4790790;29;20050;-82
2021/10/10 06:42:32;;;;;;;12.82;9.55;;;6.40;96.30;;;;;;4786061;29;20043;-82
2021/10/10 06:44:57;;;;;;;13.43;9.45;;;6.40;96.20;;;;;;4789800;29;20054;-82
2021/10/10 06:47:23;;;;;;;15.10;9.35;;;6.30;96.10;;;;;;4789337;29;20051;-82
2021/10/10 06:49:49;;;;;;;13.18;9.43;;;6.30;96.30;;;;;;4790075;29;20050;-82
2021/10/10 06:52:14;;;;;;;12.35;9.55;;;6.40;96.40;;;;;;4789330;29;20095;-82
2021/10/10 06:54:41;;;;;;;13.63;9.85;;;6.30;96.40;;;;;;4805876;29;20043;-81
2021/10/10 06:57:06;;;;;;;11.68;8.43;;;6.40;96.80;;;;;;4790008;29;20458;-82
2021/10/10 06:59:32;;;;;;;12.73;9.32;;;6.40;96.30;;;;;;4788828;29;20047;-81
2021/10/10 07:01:58;;;;;;;13.32;9.35;;;6.40;96.10;;;;;;4789237;29;20111;-82
2021/10/10 07:04:26;;;;;;;15.23;10.07;;;6.40;96.00;;;;;;4790028;29;20054;-82
2021/10/10 07:06:52;;;;;;;15.75;10.32;;;6.40;96.20;;;;;;4789395;29;20100;-82
2021/10/10 07:09:18;;;;;;;11.93;8.98;;;6.40;96.20;;;;;;4789912;29;20050;-81
2021/10/10 07:11:43;;;;;;;14.10;10.02;;;6.40;96.20;;;;;;4789449;29;20042;-81
2021/10/10 07:14:09;;;;;;;15.98;9.98;;;6.40;96.10;;;;;;4789138;29;20074;-81
2021/10/10 07:16:35;;;;;;;12.60;9.52;;;6.50;96.20;;;;;;4789838;29;20039;-81
2021/10/10 07:19:02;;;;;;;15.10;10.27;;;6.50;96.20;;;;;;4789126;29;20082;-82
2021/10/10 07:26:56;;;;;;;15.55;10.30;;;6.60;96.10;;;;;;4788520;29;20514;-81
2021/10/10 07:29:22;;;;;;;14.05;9.60;;;6.60;96.00;;;;;;4789700;29;20043;-81
2021/10/10 07:31:47;;;;;;;14.30;10.27;;;6.60;96.00;;;;;;4790151;29;20123;-81
2021/10/10 07:34:13;;;;;;;13.90;10.07;;;6.60;96.00;;;;;;4790373;29;20507;-80
2021/10/10 07:36:38;;;;;;;13.55;9.98;;;6.70;95.90;;;;;;4792911;29;20454;-81
2021/10/10 07:39:04;;;;;;;15.18;9.82;;;6.70;95.90;;;;;;4793640;29;20469;-81
2021/10/10 07:41:35;;;;;;;13.70;10.68;;;6.70;95.90;;;;;;4792600;29;20047;-81
2021/10/10 07:44:05;;;;;;;14.75;9.60;;;6.80;96.00;;;;;;4803475;29;20122;-81
2021/10/10 07:46:36;;;;;;;14.25;10.02;;;6.80;96.00;;;;;;4793093;29;20087;-81
2021/10/10 07:56:23;;;;;;;14.80;9.98;;;6.90;95.90;;;;;;5009377;24;20061;-83
2021/10/10 07:58:49;;;;;;;16.77;11.77;;;7.00;95.90;;;;;;4809063;29;20567;-83
2021/10/10 08:01:15;;;;;;;15.60;10.80;;;7.10;96.00;;;;;;4809604;29;20142;-83
2021/10/10 08:03:43;;;;;;;15.93;10.50;;;7.10;96.10;;;;;;4789007;29;20067;-83
2021/10/10 08:06:12;;;;;;;16.63;12.20;;;7.20;96.00;;;;;;4792932;29;20389;-83
2021/10/10 08:08:38;;;;;;;15.57;11.35;;;7.30;96.00;;;;;;4792630;29;20046;-83
2021/10/10 08:11:06;;;;;;;15.48;11.63;;;7.30;96.00;;;;;;4792282;29;20134;-83
2021/10/10 08:13:32;;;;;;;13.30;10.27;;;7.40;95.90;;;;;;4791937;29;20047;-85
2021/10/10 08:15:58;;;;;;;17.02;11.80;;;7.40;95.70;;;;;;4791771;29;20041;-82
2021/10/10 08:18:23;;;;;;;17.85;12.27;;;7.50;95.70;;;;;;4792644;29;20046;-83
2021/10/10 08:20:49;;;;;;;24.23;16.23;;;7.50;96.00;;;;;;4792749;29;20085;-83
2021/10/10 08:23:15;;;;;;;16.98;11.15;;;7.60;95.80;;;;;;4788783;30;20043;-83
2021/10/10 08:25:41;;;;;;;16.35;11.90;;;7.60;95.80;;;;;;4775087;30;20596;-83
2021/10/10 08:28:06;;;;;;;19.65;13.27;;;7.70;95.60;;;;;;4787344;29;20142;-83
2021/10/10 08:30:32;;;;;;;23.70;17.98;;;7.80;95.70;;;;;;4790971;29;20057;-83
2021/10/10 08:32:57;;;;;;;25.60;18.58;;;7.80;95.80;;;;;;4792577;29;20038;-83
2021/10/10 08:35:23;;;;;;;15.48;12.18;;;8.00;96.10;;;;;;4792530;29;20096;-82
2021/10/10 08:37:49;;;;;;;14.95;11.77;;;8.00;96.00;;;;;;4791769;29;20447;-82
2021/10/10 08:40:15;;;;;;;19.10;13.85;;;8.10;95.80;;;;;;4792308;29;20062;-83
2021/10/10 08:43:02;;;;;;;15.82;11.90;;;8.20;95.70;;;;;;4792235;29;20054;-82
2021/10/10 08:45:30;;;;;;;22.05;15.93;;;8.20;95.50;;;;;;4790704;29;20043;-83
2021/10/10 08:47:56;;;;;;;21.55;15.57;;;8.30;95.60;;;;;;4808456;29;20129;-83
2021/10/10 08:50:26;;;;;;;24.70;19.10;;;8.40;95.50;;;;;;4792161;29;20082;-83
2021/10/10 08:52:58;;;;;;;19.30;14.52;;;8.50;95.80;;;;;;4792105;29;20437;-82
2021/10/10 08:55:25;;;;;;;20.58;15.30;;;8.50;95.60;;;;;;4785646;29;20051;-83
2021/10/10 08:57:51;;;;;;;29.45;19.25;;;8.60;95.50;;;;;;4788122;29;20112;-83
2021/10/10 09:00:21;;;;;;;23.70;17.75;;;8.60;95.50;;;;;;4794332;29;20047;-85
2021/10/10 09:02:48;;;;;;;23.08;17.95;;;8.70;95.60;;;;;;4791084;29;20054;-84
2021/10/10 09:05:14;;;;;;;29.42;18.45;;;8.70;95.60;;;;;;4790773;29;20047;-84
2021/10/10 09:07:40;;;;;;;25.40;17.60;;;8.80;95.60;;;;;;4790850;29;20047;-84
2021/10/10 09:10:24;;;;;;;25.35;18.08;;;8.80;95.60;;;;;;4792179;29;20045;-82
2021/10/10 09:12:51;;;;;;;19.33;14.10;;;8.90;95.50;;;;;;4782795;29;20042;-83
2021/10/10 09:15:19;;;;;;;26.63;19.60;;;8.90;95.40;;;;;;4791479;29;20596;-83
2021/10/10 09:18:05;;;;;;;19.25;14.23;;;9.00;95.60;;;;;;4791360;29;20475;-83
2021/10/10 09:20:32;;;;;;;20.25;16.00;;;9.00;95.30;;;;;;4773525;30;20173;-83
2021/10/10 09:23:04;;;;;;;20.50;15.18;;;9.00;95.40;;;;;;4785960;29;20465;-83
2021/10/10 09:25:33;;;;;;;17.75;13.10;;;9.10;95.40;;;;;;4790560;29;20514;-85
2021/10/10 09:28:05;;;;;;;21.48;15.85;;;9.20;95.40;;;;;;4789682;29;20135;-82
2021/10/10 09:30:56;;;;;;;25.20;17.25;;;9.20;95.20;;;;;;4790336;29;20369;-84
2021/10/10 09:33:40;;;;;;;18.48;13.82;;;9.20;95.20;;;;;;4794512;29;20051;-86
2021/10/10 09:36:25;;;;;;;26.98;19.02;;;9.30;95.20;;;;;;4792007;29;20043;-86
2021/10/10 09:39:06;;;;;;;24.55;18.33;;;9.30;95.40;;;;;;4792535;29;20054;-85
2021/10/10 09:44:26;;;;;;;28.67;21.45;;;9.40;95.40;;;;;;4792448;29;20143;-86
2021/10/10 09:46:59;;;;;;;28.48;21.60;;;9.50;95.60;;;;;;4791443;29;20150;-85
2021/10/10 09:49:32;;;;;;;28.33;22.05;;;9.60;95.80;;;;;;4792012;29;20440;-85
2021/10/10 09:52:07;;;;;;;33.40;21.38;;;9.70;95.80;;;;;;4791833;29;20043;-85
2021/10/10 09:54:56;;;;;;;35.00;23.38;;;9.80;95.80;;;;;;4791408;29;20061;-86
2021/10/10 09:57:24;;;;;;;30.77;22.90;;;9.90;95.80;;;;;;4790721;29;20092;-85
2021/10/10 09:59:50;;;;;;;31.58;22.17;;;10.00;95.90;;;;;;4791495;29;20058;-85
2021/10/10 10:02:17;;;;;;;34.80;24.17;;;10.10;95.80;;;;;;4791515;29;20046;-85
2021/10/10 10:04:47;;;;;;;33.20;24.30;;;10.20;95.80;;;;;;4791450;29;20050;-86
2021/10/10 10:07:20;;;;;;;26.00;18.83;;;10.40;96.10;;;;;;4791719;29;20047;-86
2021/10/10 10:09:50;;;;;;;36.08;25.05;;;10.50;95.80;;;;;;4790429;29;20051;-86
2021/10/10 10:12:21;;;;;;;34.42;24.17;;;10.60;95.90;;;;;;4791779;29;20059;-86
2021/10/10 10:14:52;;;;;;;30.85;23.65;;;10.70;95.90;;;;;;4790132;29;20050;-85
2021/10/10 10:17:22;;;;;;;31.25;23.80;;;10.80;95.90;;;;;;4791067;29;20082;-85
2021/10/10 10:19:48;;;;;;;33.95;25.45;;;10.90;96.10;;;;;;4791003;29;20074;-84
2021/10/10 10:22:16;;;;;;;34.83;25.65;;;11.10;95.80;;;;;;4790274;29;20188;-85
2021/10/10 10:24:45;;;;;;;29.25;22.13;;;11.20;95.90;;;;;;4790735;29;20050;-85
2021/10/10 10:27:12;;;;;;;36.97;25.60;;;11.30;95.60;;;;;;4791057;29;20050;-85
2021/10/10 10:29:40;;;;;;;36.63;24.70;;;11.40;95.60;;;;;;4789681;29;20103;-86
2021/10/10 10:32:08;;;;;;;31.83;23.88;;;11.50;95.50;;;;;;4790716;29;20492;-85
2021/10/10 10:34:34;;;;;;;34.00;23.60;;;11.60;95.40;;;;;;4790656;29;20131;-85
2021/10/10 10:37:08;;;;;;;35.50;25.85;;;11.70;95.10;;;;;;4790272;29;20539;-85
2021/10/10 10:39:49;;;;;;;36.35;26.00;;;11.90;95.00;;;;;;4790737;29;20468;-85
2021/10/10 10:42:24;;;;;;;34.05;24.23;;;11.90;95.00;;;;;;4790920;29;20086;-85
2021/10/10 10:44:52;;;;;;;34.95;25.65;;;12.00;94.90;;;;;;4789992;29;20051;-86
2021/10/10 10:47:22;;;;;;;37.67;25.73;;;12.10;94.90;;;;;;4790428;29;20089;-87
2021/10/10 10:49:54;;;;;;;31.38;23.77;;;12.20;94.90;;;;;;4790120;29;20111;-86
2021/10/10 10:52:35;;;;;;;35.00;25.20;;;12.30;95.00;;;;;;4791765;29;20504;-86
2021/10/10 10:55:17;;;;;;;35.45;24.05;;;12.40;94.70;;;;;;4792982;29;20487;-86
2021/10/10 10:57:48;;;;;;;35.22;24.63;;;12.50;94.50;;;;;;4791253;29;20102;-86
2021/10/10 11:00:19;;;;;;;35.92;25.00;;;12.60;94.40;;;;;;4790871;29;20086;-86
2021/10/10 11:02:54;;;;;;;35.53;24.85;;;12.70;94.30;;;;;;4790653;29;20411;-86
2021/10/10 11:05:44;;;;;;;38.00;23.80;;;12.80;94.20;;;;;;4789679;29;20100;-86
2021/10/10 11:08:19;;;;;;;32.90;24.48;;;13.00;94.00;;;;;;4790909;29;20055;-86
2021/10/10 11:11:00;;;;;;;37.40;25.17;;;13.10;94.10;;;;;;4790367;29;20046;-86
2021/10/10 11:13:28;;;;;;;34.08;25.00;;;13.20;93.90;;;;;;4790086;29;20054;-85
2021/10/10 11:16:03;;;;;;;37.10;24.92;;;13.30;93.80;;;;;;4790538;29;20442;-85
2021/10/10 11:18:30;;;;;;;44.63;26.85;;;13.40;93.50;;;;;;4789571;29;20062;-86
2021/10/10 11:20:59;;;;;;;35.63;25.40;;;13.50;93.40;;;;;;4790325;29;20054;-86
2021/10/10 11:23:27;;;;;;;36.35;25.73;;;13.60;93.10;;;;;;4790059;29;20393;-86
2021/10/10 11:25:55;;;;;;;34.83;25.52;;;13.70;93.10;;;;;;4789597;29;20047;-86
2021/10/10 11:28:50;;;;;;;37.22;25.83;;;13.80;93.00;;;;;;4790442;29;20098;-86
2021/10/10 11:31:27;;;;;;;38.40;27.08;;;13.90;92.90;;;;;;4790389;29;20047;-86
2021/10/10 11:33:58;;;;;;;41.83;27.42;;;14.00;92.90;;;;;;4789854;29;20051;-86
2021/10/10 11:36:36;;;;;;;41.70;27.98;;;14.10;92.70;;;;;;4790260;29;20051;-86
2021/10/10 11:39:03;;;;;;;45.08;27.55;;;14.10;92.40;;;;;;4790310;29;20054;-86
2021/10/10 11:41:29;;;;;;;40.80;26.67;;;14.20;92.30;;;;;;4789319;29;20051;-86
2021/10/10 11:44:00;;;;;;;42.72;26.75;;;14.40;92.20;;;;;;4790041;29;20077;-87
2021/10/10 11:46:26;;;;;;;39.60;27.25;;;14.30;92.00;;;;;;4789216;29;20054;-86
2021/10/10 11:48:54;;;;;;;38.60;27.63;;;14.40;91.80;;;;;;4789677;29;20153;-86
2021/10/10 11:51:36;;;;;;;41.28;27.17;;;14.50;91.80;;;;;;4790063;29;20062;-87
2021/10/10 11:54:06;;;;;;;47.65;29.25;;;14.60;91.40;;;;;;4789310;29;20055;-86
2021/10/10 11:56:32;;;;;;;39.63;27.33;;;14.60;91.30;;;;;;4789651;29;20499;-86
2021/10/10 11:59:13;;;;;;;39.35;28.10;;;14.70;91.30;;;;;;4789997;29;20039;-86
2021/10/10 12:01:39;;;;;;;38.38;27.98;;;14.80;91.10;;;;;;4789093;29;20129;-87
2021/10/10 12:04:05;;;;;;;40.55;28.02;;;14.80;91.20;;;;;;4789801;29;20133;-87
2021/10/10 12:06:31;;;;;;;41.45;28.52;;;14.90;91.20;;;;;;4789637;29;20568;-86
2021/10/10 12:09:10;;;;;;;39.72;28.63;;;14.90;91.00;;;;;;4789472;29;20130;-86
2021/10/10 12:11:38;;;;;;;40.08;27.77;;;15.00;91.00;;;;;;4790175;29;20054;-86
2021/10/10 12:14:04;;;;;;;43.00;28.42;;;15.10;90.80;;;;;;4789904;29;20161;-86
2021/10/10 12:16:42;;;;;;;46.45;28.80;;;15.20;90.50;;;;;;4788785;29;20137;-86
2021/10/10 12:19:09;;;;;;;42.53;28.50;;;15.20;90.30;;;;;;4789862;29;20408;-87
2021/10/10 12:21:36;;;;;;;40.80;28.55;;;15.30;90.40;;;;;;4790228;29;20046;-86
2021/10/10 12:24:06;;;;;;;37.58;29.00;;;15.40;90.10;;;;;;4793235;29;20043;-87
2021/10/10 12:26:51;;;;;;;42.67;28.95;;;15.40;90.10;;;;;;4792582;29;20073;-86
2021/10/10 12:29:32;;;;;;;41.30;30.35;;;15.50;90.20;;;;;;4792594;29;20061;-87
2021/10/10 12:32:21;;;;;;;41.88;30.00;;;15.60;90.40;;;;;;4793205;29;20145;-87
2021/10/10 12:34:47;;;;;;;44.13;30.42;;;15.60;90.10;;;;;;4792795;29;20043;-87
2021/10/10 12:37:21;;;;;;;40.92;30.42;;;15.70;90.10;;;;;;4791924;29;20491;-86
2021/10/10 12:39:48;;;;;;;43.70;29.95;;;15.70;90.00;;;;;;4792498;29;20611;-87
2021/10/10 12:42:17;;;;;;;37.97;28.60;;;15.70;89.70;;;;;;4792974;29;20133;-87
2021/10/10 12:45:19;;;;;;;45.15;29.67;;;15.70;90.30;;;;;;4791926;29;20051;-87
2021/10/10 12:47:56;;;;;;;42.58;28.83;;;15.80;88.70;;;;;;4792572;29;20086;-87
2021/10/10 12:50:21;;;;;;;35.75;28.55;;;15.80;88.70;;;;;;4791932;29;20050;-84
2021/10/10 12:52:50;;;;;;;41.80;29.13;;;15.70;88.60;;;;;;4792587;29;20055;-85
2021/10/10 12:55:27;;;;;;;41.22;30.00;;;15.80;89.00;;;;;;4792764;29;20075;-87
2021/10/10 12:57:54;;;;;;;40.33;29.17;;;15.80;87.90;;;;;;4791645;29;20062;-86
2021/10/10 13:00:20;;;;;;;34.80;27.90;;;15.80;88.00;;;;;;4792619;29;20046;-86